sensor_id;sensor_type;location;lat;lon;timestamp;P1;durP1;ratioP1;P2;durP2;ratioP2
3843;SDS011;1937;51.444;6.484;2023-04-25T00:01:16;39.20;;;6.90;;
3843;SDS011;1937;51.444;6.484;2023-04-25T00:03:43;33.20;;;5.60;;
3843;SDS011;1937;51.444;6.484;2023-04-25T00:06:10;36.40;;;6.50;;
3843;SDS011;1937;51.444;6.484;2023-04-25T00:08:37;43.33;;;7.60;;
3843;SDS011;1937;51.444;6.484;2023-04-25T00:11:04;37.53;;;7.00;;
3843;SDS011;1937;51.444;6.484;2023-04-25T00:13:31;37.90;;;7.57;;
3843;SDS011;1937;51.444;6.484;2023-04-25T00:15:59;37.70;;;6.63;;
3843;SDS011;1937;51.444;6.484;2023-04-25T00:18:26;34.37;;;6.20;;
3843;SDS011;1937;51.444;6.484;2023-04-25T00:20:53;38.03;;;6.70;;
3843;SDS011;1937;51.444;6.484;2023-04-25T00:23:21;42.13;;;6.70;;
3843;SDS011;1937;51.444;6.484;2023-04-25T00:25:49;35.23;;;6.10;;
3843;SDS011;1937;51.444;6.484;2023-04-25T00:28:16;38.60;;;7.03;;
3843;SDS011;1937;51.444;6.484;2023-04-25T00:30:43;36.70;;;6.37;;
3843;SDS011;1937;51.444;6.484;2023-04-25T00:33:11;43.33;;;9.73;;
3843;SDS011;1937;51.444;6.484;2023-04-25T00:35:37;38.77;;;5.97;;
3843;SDS011;1937;51.444;6.484;2023-04-25T00:38:04;37.00;;;6.73;;
3843;SDS011;1937;51.444;6.484;2023-04-25T00:40:31;39.73;;;7.43;;
3843;SDS011;1937;51.444;6.484;2023-04-25T00:42:57;41.23;;;6.40;;
3843;SDS011;1937;51.444;6.484;2023-04-25T00:45:26;37.90;;;5.90;;
3843;SDS011;1937;51.444;6.484;2023-04-25T00:47:54;36.53;;;5.40;;
3843;SDS011;1937;51.444;6.484;2023-04-25T00:50:23;36.87;;;6.57;;
3843;SDS011;1937;51.444;6.484;2023-04-25T00:52:49;37.20;;;6.30;;
3843;SDS011;1937;51.444;6.484;2023-04-25T00:55:16;36.33;;;6.30;;
3843;SDS011;1937;51.444;6.484;2023-04-25T00:57:43;35.67;;;6.40;;
3843;SDS011;1937;51.444;6.484;2023-04-25T01:00:10;44.40;;;7.57;;
3843;SDS011;1937;51.444;6.484;2023-04-25T01:02:38;41.20;;;6.90;;
3843;SDS011;1937;51.444;6.484;2023-04-25T01:05:06;35.07;;;6.57;;
3843;SDS011;1937;51.444;6.484;2023-04-25T01:07:35;37.47;;;6.83;;
3843;SDS011;1937;51.444;6.484;2023-04-25T01:10:02;41.23;;;7.87;;
3843;SDS011;1937;51.444;6.484;2023-04-25T01:12:29;36.80;;;6.67;;
3843;SDS011;1937;51.444;6.484;2023-04-25T01:14:55;35.70;;;7.00;;
3843;SDS011;1937;51.444;6.484;2023-04-25T01:17:22;40.70;;;7.80;;
3843;SDS011;1937;51.444;6.484;2023-04-25T01:19:49;42.27;;;7.50;;
3843;SDS011;1937;51.444;6.484;2023-04-25T01:22:17;34.30;;;7.20;;
3843;SDS011;1937;51.444;6.484;2023-04-25T01:24:44;46.60;;;7.43;;
3843;SDS011;1937;51.444;6.484;2023-04-25T01:27:11;49.97;;;6.57;;
3843;SDS011;1937;51.444;6.484;2023-04-25T01:29:38;41.43;;;7.00;;
3843;SDS011;1937;51.444;6.484;2023-04-25T01:32:05;36.37;;;5.87;;
3843;SDS011;1937;51.444;6.484;2023-04-25T01:34:32;38.23;;;6.53;;
3843;SDS011;1937;51.444;6.484;2023-04-25T01:36:59;35.53;;;5.97;;
3843;SDS011;1937;51.444;6.484;2023-04-25T01:39:28;37.27;;;5.63;;
3843;SDS011;1937;51.444;6.484;2023-04-25T01:41:55;38.13;;;7.13;;
3843;SDS011;1937;51.444;6.484;2023-04-25T01:44:22;38.37;;;5.50;;
3843;SDS011;1937;51.444;6.484;2023-04-25T01:46:49;31.73;;;6.30;;
3843;SDS011;1937;51.444;6.484;2023-04-25T01:49:16;38.43;;;6.70;;
3843;SDS011;1937;51.444;6.484;2023-04-25T01:51:43;31.83;;;6.13;;
3843;SDS011;1937;51.444;6.484;2023-04-25T01:54:10;33.40;;;5.17;;
3843;SDS011;1937;51.444;6.484;2023-04-25T01:56:38;36.20;;;6.50;;
3843;SDS011;1937;51.444;6.484;2023-04-25T01:59:05;38.13;;;5.63;;
3843;SDS011;1937;51.444;6.484;2023-04-25T02:01:32;45.63;;;7.13;;
3843;SDS011;1937;51.444;6.484;2023-04-25T02:03:59;35.53;;;6.83;;
3843;SDS011;1937;51.444;6.484;2023-04-25T02:06:25;37.47;;;5.90;;
3843;SDS011;1937;51.444;6.484;2023-04-25T02:08:52;56.73;;;6.90;;
3843;SDS011;1937;51.444;6.484;2023-04-25T02:11:18;38.10;;;6.00;;
3843;SDS011;1937;51.444;6.484;2023-04-25T02:13:46;32.43;;;5.97;;
3843;SDS011;1937;51.444;6.484;2023-04-25T02:16:13;36.70;;;6.03;;
3843;SDS011;1937;51.444;6.484;2023-04-25T02:18:39;36.90;;;6.03;;
3843;SDS011;1937;51.444;6.484;2023-04-25T02:21:06;34.97;;;6.10;;
3843;SDS011;1937;51.444;6.484;2023-04-25T02:23:33;39.70;;;7.83;;
3843;SDS011;1937;51.444;6.484;2023-04-25T02:25:59;35.60;;;5.63;;
3843;SDS011;1937;51.444;6.484;2023-04-25T02:28:26;40.50;;;6.00;;
3843;SDS011;1937;51.444;6.484;2023-04-25T02:30:54;36.57;;;5.97;;
3843;SDS011;1937;51.444;6.484;2023-04-25T02:33:21;35.13;;;5.33;;
3843;SDS011;1937;51.444;6.484;2023-04-25T02:35:47;38.53;;;6.97;;
3843;SDS011;1937;51.444;6.484;2023-04-25T02:38:14;34.47;;;5.50;;
3843;SDS011;1937;51.444;6.484;2023-04-25T02:40:41;40.93;;;7.67;;
3843;SDS011;1937;51.444;6.484;2023-04-25T02:43:07;36.70;;;6.47;;
3843;SDS011;1937;51.444;6.484;2023-04-25T02:45:34;46.07;;;6.40;;
3843;SDS011;1937;51.444;6.484;2023-04-25T02:48:03;35.30;;;7.00;;
3843;SDS011;1937;51.444;6.484;2023-04-25T02:50:29;39.93;;;6.50;;
3843;SDS011;1937;51.444;6.484;2023-04-25T02:52:56;39.13;;;5.70;;
3843;SDS011;1937;51.444;6.484;2023-04-25T02:55:23;39.20;;;7.37;;
3843;SDS011;1937;51.444;6.484;2023-04-25T02:57:49;35.47;;;6.53;;
3843;SDS011;1937;51.444;6.484;2023-04-25T03:00:16;38.20;;;6.37;;
3843;SDS011;1937;51.444;6.484;2023-04-25T03:02:43;47.00;;;6.10;;
3843;SDS011;1937;51.444;6.484;2023-04-25T03:05:11;31.23;;;4.83;;
3843;SDS011;1937;51.444;6.484;2023-04-25T03:07:37;37.87;;;6.10;;
3843;SDS011;1937;51.444;6.484;2023-04-25T03:10:05;39.80;;;6.07;;
3843;SDS011;1937;51.444;6.484;2023-04-25T03:12:33;35.80;;;5.80;;
3843;SDS011;1937;51.444;6.484;2023-04-25T03:14:59;36.73;;;6.30;;
3843;SDS011;1937;51.444;6.484;2023-04-25T03:17:26;33.80;;;5.43;;
3843;SDS011;1937;51.444;6.484;2023-04-25T03:19:53;43.87;;;6.13;;
3843;SDS011;1937;51.444;6.484;2023-04-25T03:22:21;35.77;;;7.83;;
3843;SDS011;1937;51.444;6.484;2023-04-25T03:24:48;36.03;;;8.20;;
3843;SDS011;1937;51.444;6.484;2023-04-25T03:27:15;37.97;;;6.63;;
3843;SDS011;1937;51.444;6.484;2023-04-25T03:29:41;44.80;;;7.03;;
3843;SDS011;1937;51.444;6.484;2023-04-25T03:32:08;36.93;;;6.30;;
3843;SDS011;1937;51.444;6.484;2023-04-25T03:34:35;35.07;;;6.57;;
3843;SDS011;1937;51.444;6.484;2023-04-25T03:37:01;40.30;;;6.23;;
3843;SDS011;1937;51.444;6.484;2023-04-25T03:39:29;35.30;;;7.10;;
3843;SDS011;1937;51.444;6.484;2023-04-25T03:41:56;34.23;;;7.73;;
3843;SDS011;1937;51.444;6.484;2023-04-25T03:44:22;40.03;;;7.07;;
3843;SDS011;1937;51.444;6.484;2023-04-25T03:46:50;35.30;;;9.20;;
3843;SDS011;1937;51.444;6.484;2023-04-25T03:49:16;42.97;;;9.13;;
3843;SDS011;1937;51.444;6.484;2023-04-25T03:51:43;41.30;;;8.13;;
3843;SDS011;1937;51.444;6.484;2023-04-25T03:54:10;35.30;;;7.10;;
3843;SDS011;1937;51.444;6.484;2023-04-25T03:56:38;41.20;;;9.53;;
3843;SDS011;1937;51.444;6.484;2023-04-25T03:59:04;36.20;;;7.27;;
3843;SDS011;1937;51.444;6.484;2023-04-25T04:01:31;34.20;;;7.17;;
3843;SDS011;1937;51.444;6.484;2023-04-25T04:03:57;35.27;;;6.90;;
3843;SDS011;1937;51.444;6.484;2023-04-25T04:06:24;37.80;;;7.70;;
3843;SDS011;1937;51.444;6.484;2023-04-25T04:08:51;41.13;;;6.63;;
3843;SDS011;1937;51.444;6.484;2023-04-25T04:11:17;39.20;;;7.60;;
3843;SDS011;1937;51.444;6.484;2023-04-25T04:13:45;33.40;;;6.90;;
3843;SDS011;1937;51.444;6.484;2023-04-25T04:16:12;38.03;;;6.97;;
3843;SDS011;1937;51.444;6.484;2023-04-25T04:18:39;39.07;;;7.67;;
3843;SDS011;1937;51.444;6.484;2023-04-25T04:21:05;35.00;;;8.30;;
3843;SDS011;1937;51.444;6.484;2023-04-25T04:23:32;32.60;;;7.67;;
3843;SDS011;1937;51.444;6.484;2023-04-25T04:25:59;45.23;;;7.10;;
3843;SDS011;1937;51.444;6.484;2023-04-25T04:28:26;32.23;;;7.20;;
3843;SDS011;1937;51.444;6.484;2023-04-25T04:30:54;32.33;;;6.33;;
3843;SDS011;1937;51.444;6.484;2023-04-25T04:33:21;36.53;;;8.00;;
3843;SDS011;1937;51.444;6.484;2023-04-25T04:35:50;33.87;;;6.50;;
3843;SDS011;1937;51.444;6.484;2023-04-25T04:38:18;41.27;;;7.13;;
3843;SDS011;1937;51.444;6.484;2023-04-25T04:40:46;37.60;;;8.10;;
3843;SDS011;1937;51.444;6.484;2023-04-25T04:43:13;41.03;;;7.27;;
3843;SDS011;1937;51.444;6.484;2023-04-25T04:45:42;32.33;;;7.67;;
3843;SDS011;1937;51.444;6.484;2023-04-25T04:48:10;31.90;;;7.17;;
3843;SDS011;1937;51.444;6.484;2023-04-25T04:50:39;36.20;;;7.13;;
3843;SDS011;1937;51.444;6.484;2023-04-25T04:53:06;39.77;;;8.27;;
3843;SDS011;1937;51.444;6.484;2023-04-25T04:55:33;36.67;;;7.20;;
3843;SDS011;1937;51.444;6.484;2023-04-25T04:58:00;34.57;;;6.80;;
3843;SDS011;1937;51.444;6.484;2023-04-25T05:00:26;36.13;;;7.70;;
3843;SDS011;1937;51.444;6.484;2023-04-25T05:02:54;34.87;;;7.67;;
3843;SDS011;1937;51.444;6.484;2023-04-25T05:05:22;39.20;;;8.97;;
3843;SDS011;1937;51.444;6.484;2023-04-25T05:07:49;33.60;;;6.27;;
3843;SDS011;1937;51.444;6.484;2023-04-25T05:10:16;34.50;;;7.17;;
3843;SDS011;1937;51.444;6.484;2023-04-25T05:12:43;30.50;;;6.10;;
3843;SDS011;1937;51.444;6.484;2023-04-25T05:15:10;36.43;;;7.67;;
3843;SDS011;1937;51.444;6.484;2023-04-25T05:17:37;33.60;;;7.27;;
3843;SDS011;1937;51.444;6.484;2023-04-25T05:20:04;32.03;;;6.77;;
3843;SDS011;1937;51.444;6.484;2023-04-25T05:22:33;35.97;;;6.93;;
3843;SDS011;1937;51.444;6.484;2023-04-25T05:25:00;45.53;;;8.13;;
3843;SDS011;1937;51.444;6.484;2023-04-25T05:27:26;30.30;;;6.10;;
3843;SDS011;1937;51.444;6.484;2023-04-25T05:29:53;32.23;;;5.80;;
3843;SDS011;1937;51.444;6.484;2023-04-25T05:32:20;38.87;;;7.53;;
3843;SDS011;1937;51.444;6.484;2023-04-25T05:34:46;34.10;;;7.13;;
3843;SDS011;1937;51.444;6.484;2023-04-25T05:37:13;31.53;;;6.30;;
3843;SDS011;1937;51.444;6.484;2023-04-25T05:39:41;36.20;;;7.03;;
3843;SDS011;1937;51.444;6.484;2023-04-25T05:42:08;32.50;;;6.87;;
3843;SDS011;1937;51.444;6.484;2023-04-25T05:44:35;34.70;;;7.80;;
3843;SDS011;1937;51.444;6.484;2023-04-25T05:47:02;39.53;;;7.83;;
3843;SDS011;1937;51.444;6.484;2023-04-25T05:49:29;41.80;;;7.20;;
3843;SDS011;1937;51.444;6.484;2023-04-25T05:51:56;33.53;;;6.77;;
3843;SDS011;1937;51.444;6.484;2023-04-25T05:54:22;34.73;;;5.90;;
3843;SDS011;1937;51.444;6.484;2023-04-25T05:56:50;40.97;;;7.60;;
3843;SDS011;1937;51.444;6.484;2023-04-25T05:59:17;36.70;;;7.90;;
3843;SDS011;1937;51.444;6.484;2023-04-25T06:01:44;37.80;;;7.03;;
3843;SDS011;1937;51.444;6.484;2023-04-25T06:04:11;37.80;;;7.43;;
3843;SDS011;1937;51.444;6.484;2023-04-25T06:06:38;37.17;;;6.10;;
3843;SDS011;1937;51.444;6.484;2023-04-25T06:09:04;36.50;;;7.77;;
3843;SDS011;1937;51.444;6.484;2023-04-25T06:11:31;34.30;;;7.17;;
3843;SDS011;1937;51.444;6.484;2023-04-25T06:14:00;35.90;;;6.53;;
3843;SDS011;1937;51.444;6.484;2023-04-25T06:16:26;37.57;;;6.20;;
3843;SDS011;1937;51.444;6.484;2023-04-25T06:18:53;39.17;;;5.90;;
3843;SDS011;1937;51.444;6.484;2023-04-25T06:21:20;37.00;;;6.53;;
3843;SDS011;1937;51.444;6.484;2023-04-25T06:23:46;36.27;;;6.87;;
3843;SDS011;1937;51.444;6.484;2023-04-25T06:26:13;37.40;;;6.47;;
3843;SDS011;1937;51.444;6.484;2023-04-25T06:28:40;42.90;;;8.00;;
3843;SDS011;1937;51.444;6.484;2023-04-25T06:31:08;33.27;;;5.47;;
3843;SDS011;1937;51.444;6.484;2023-04-25T06:33:34;35.10;;;5.77;;
3843;SDS011;1937;51.444;6.484;2023-04-25T06:36:01;38.30;;;6.00;;
3843;SDS011;1937;51.444;6.484;2023-04-25T06:38:28;37.00;;;6.87;;
3843;SDS011;1937;51.444;6.484;2023-04-25T06:40:54;38.70;;;5.77;;
3843;SDS011;1937;51.444;6.484;2023-04-25T06:43:21;40.53;;;5.10;;
3843;SDS011;1937;51.444;6.484;2023-04-25T06:45:48;36.40;;;6.03;;
3843;SDS011;1937;51.444;6.484;2023-04-25T06:48:16;39.07;;;5.70;;
3843;SDS011;1937;51.444;6.484;2023-04-25T06:50:42;45.00;;;5.90;;
3843;SDS011;1937;51.444;6.484;2023-04-25T06:53:09;39.93;;;7.47;;
3843;SDS011;1937;51.444;6.484;2023-04-25T06:55:36;35.83;;;5.50;;
3843;SDS011;1937;51.444;6.484;2023-04-25T06:58:03;33.83;;;6.60;;
3843;SDS011;1937;51.444;6.484;2023-04-25T07:00:29;40.50;;;6.20;;
3843;SDS011;1937;51.444;6.484;2023-04-25T07:02:57;37.40;;;6.20;;
3843;SDS011;1937;51.444;6.484;2023-04-25T07:05:25;46.03;;;6.10;;
3843;SDS011;1937;51.444;6.484;2023-04-25T07:07:51;37.87;;;6.23;;
3843;SDS011;1937;51.444;6.484;2023-04-25T07:10:18;34.07;;;5.23;;
3843;SDS011;1937;51.444;6.484;2023-04-25T07:12:46;36.50;;;7.00;;
3843;SDS011;1937;51.444;6.484;2023-04-25T07:15:13;34.40;;;5.60;;
3843;SDS011;1937;51.444;6.484;2023-04-25T07:17:39;37.73;;;5.80;;
3843;SDS011;1937;51.444;6.484;2023-04-25T07:20:06;30.93;;;5.63;;
3843;SDS011;1937;51.444;6.484;2023-04-25T07:22:35;35.90;;;6.07;;
3843;SDS011;1937;51.444;6.484;2023-04-25T07:25:02;32.90;;;5.20;;
3843;SDS011;1937;51.444;6.484;2023-04-25T07:27:29;34.03;;;6.30;;
3843;SDS011;1937;51.444;6.484;2023-04-25T07:29:56;42.30;;;6.70;;
3843;SDS011;1937;51.444;6.484;2023-04-25T07:32:23;31.87;;;6.63;;
3843;SDS011;1937;51.444;6.484;2023-04-25T07:34:50;31.30;;;5.40;;
3843;SDS011;1937;51.444;6.484;2023-04-25T07:37:16;30.73;;;7.40;;
3843;SDS011;1937;51.444;6.484;2023-04-25T07:39:45;32.87;;;5.97;;
3843;SDS011;1937;51.444;6.484;2023-04-25T07:42:12;39.30;;;7.20;;
3843;SDS011;1937;51.444;6.484;2023-04-25T07:44:39;38.83;;;9.10;;
3843;SDS011;1937;51.444;6.484;2023-04-25T07:47:07;35.33;;;8.87;;
3843;SDS011;1937;51.444;6.484;2023-04-25T07:49:35;33.30;;;8.60;;
3843;SDS011;1937;51.444;6.484;2023-04-25T07:52:02;35.53;;;7.30;;
3843;SDS011;1937;51.444;6.484;2023-04-25T07:54:30;30.03;;;7.70;;
3843;SDS011;1937;51.444;6.484;2023-04-25T07:56:58;31.43;;;7.60;;
3843;SDS011;1937;51.444;6.484;2023-04-25T07:59:25;28.83;;;7.90;;
3843;SDS011;1937;51.444;6.484;2023-04-25T08:01:52;34.73;;;9.10;;
3843;SDS011;1937;51.444;6.484;2023-04-25T08:04:19;33.47;;;7.73;;
3843;SDS011;1937;51.444;6.484;2023-04-25T08:06:46;32.83;;;9.43;;
3843;SDS011;1937;51.444;6.484;2023-04-25T08:09:13;36.67;;;11.50;;
3843;SDS011;1937;51.444;6.484;2023-04-25T08:11:40;27.83;;;8.63;;
3843;SDS011;1937;51.444;6.484;2023-04-25T08:14:09;28.33;;;7.83;;
3843;SDS011;1937;51.444;6.484;2023-04-25T08:16:36;27.60;;;8.10;;
3843;SDS011;1937;51.444;6.484;2023-04-25T08:19:03;32.30;;;8.93;;
3843;SDS011;1937;51.444;6.484;2023-04-25T08:21:31;28.00;;;7.57;;
3843;SDS011;1937;51.444;6.484;2023-04-25T08:23:58;31.97;;;9.03;;
3843;SDS011;1937;51.444;6.484;2023-04-25T08:26:25;32.50;;;10.60;;
3843;SDS011;1937;51.444;6.484;2023-04-25T08:28:51;27.40;;;7.80;;
3843;SDS011;1937;51.444;6.484;2023-04-25T08:31:20;27.47;;;8.30;;
3843;SDS011;1937;51.444;6.484;2023-04-25T08:33:47;34.33;;;8.43;;
3843;SDS011;1937;51.444;6.484;2023-04-25T08:36:16;24.83;;;8.20;;
3843;SDS011;1937;51.444;6.484;2023-04-25T08:38:43;28.57;;;7.67;;
3843;SDS011;1937;51.444;6.484;2023-04-25T08:41:15;31.60;;;8.00;;
3843;SDS011;1937;51.444;6.484;2023-04-25T08:43:44;25.63;;;7.23;;
3843;SDS011;1937;51.444;6.484;2023-04-25T08:46:11;21.90;;;6.30;;
3843;SDS011;1937;51.444;6.484;2023-04-25T08:48:41;24.80;;;7.13;;
3843;SDS011;1937;51.444;6.484;2023-04-25T08:51:14;27.20;;;5.77;;
3843;SDS011;1937;51.444;6.484;2023-04-25T08:53:50;26.33;;;8.43;;
3843;SDS011;1937;51.444;6.484;2023-04-25T08:56:18;30.87;;;8.27;;
3843;SDS011;1937;51.444;6.484;2023-04-25T08:58:48;31.97;;;10.03;;
3843;SDS011;1937;51.444;6.484;2023-04-25T09:01:23;29.63;;;10.73;;
3843;SDS011;1937;51.444;6.484;2023-04-25T09:03:51;29.40;;;9.30;;
3843;SDS011;1937;51.444;6.484;2023-04-25T09:06:19;32.90;;;10.00;;
3843;SDS011;1937;51.444;6.484;2023-04-25T09:08:46;36.53;;;11.10;;
3843;SDS011;1937;51.444;6.484;2023-04-25T09:11:12;27.97;;;9.43;;
3843;SDS011;1937;51.444;6.484;2023-04-25T09:13:39;23.57;;;6.60;;
3843;SDS011;1937;51.444;6.484;2023-04-25T09:16:06;24.23;;;4.80;;
3843;SDS011;1937;51.444;6.484;2023-04-25T09:18:33;26.03;;;6.17;;
3843;SDS011;1937;51.444;6.484;2023-04-25T09:21:06;23.37;;;6.40;;
3843;SDS011;1937;51.444;6.484;2023-04-25T09:23:41;22.03;;;6.43;;
3843;SDS011;1937;51.444;6.484;2023-04-25T09:26:13;23.03;;;6.10;;
3843;SDS011;1937;51.444;6.484;2023-04-25T09:28:42;23.00;;;5.03;;
3843;SDS011;1937;51.444;6.484;2023-04-25T09:31:09;21.00;;;5.47;;
3843;SDS011;1937;51.444;6.484;2023-04-25T09:33:37;18.83;;;5.20;;
3843;SDS011;1937;51.444;6.484;2023-04-25T09:36:07;24.00;;;5.67;;
3843;SDS011;1937;51.444;6.484;2023-04-25T09:38:39;24.97;;;6.40;;
3843;SDS011;1937;51.444;6.484;2023-04-25T09:41:07;32.13;;;6.50;;
3843;SDS011;1937;51.444;6.484;2023-04-25T09:43:34;26.03;;;5.90;;
3843;SDS011;1937;51.444;6.484;2023-04-25T09:46:00;25.63;;;5.57;;
3843;SDS011;1937;51.444;6.484;2023-04-25T09:48:27;22.20;;;6.40;;
3843;SDS011;1937;51.444;6.484;2023-04-25T09:51:04;21.97;;;4.83;;
3843;SDS011;1937;51.444;6.484;2023-04-25T09:53:33;23.90;;;7.43;;
3843;SDS011;1937;51.444;6.484;2023-04-25T09:56:03;27.43;;;7.10;;
3843;SDS011;1937;51.444;6.484;2023-04-25T09:58:32;28.30;;;9.83;;
3843;SDS011;1937;51.444;6.484;2023-04-25T10:01:01;29.13;;;8.97;;
3843;SDS011;1937;51.444;6.484;2023-04-25T10:03:29;26.73;;;7.90;;
3843;SDS011;1937;51.444;6.484;2023-04-25T10:05:58;24.30;;;6.87;;
3843;SDS011;1937;51.444;6.484;2023-04-25T10:08:31;25.50;;;6.23;;
3843;SDS011;1937;51.444;6.484;2023-04-25T10:11:00;25.47;;;4.73;;
3843;SDS011;1937;51.444;6.484;2023-04-25T10:13:28;23.33;;;4.90;;
3843;SDS011;1937;51.444;6.484;2023-04-25T10:15:57;22.10;;;5.60;;
3843;SDS011;1937;51.444;6.484;2023-04-25T10:18:24;17.60;;;3.80;;
3843;SDS011;1937;51.444;6.484;2023-04-25T10:20:51;20.43;;;4.37;;
3843;SDS011;1937;51.444;6.484;2023-04-25T10:23:19;20.83;;;5.00;;
3843;SDS011;1937;51.444;6.484;2023-04-25T10:25:48;22.77;;;4.97;;
3843;SDS011;1937;51.444;6.484;2023-04-25T10:28:16;24.00;;;4.53;;
3843;SDS011;1937;51.444;6.484;2023-04-25T10:30:56;25.73;;;6.97;;
3843;SDS011;1937;51.444;6.484;2023-04-25T10:33:29;35.53;;;19.23;;
3843;SDS011;1937;51.444;6.484;2023-04-25T10:35:58;20.67;;;5.47;;
3843;SDS011;1937;51.444;6.484;2023-04-25T10:38:25;19.70;;;4.93;;
3843;SDS011;1937;51.444;6.484;2023-04-25T10:41:06;21.90;;;5.73;;
3843;SDS011;1937;51.444;6.484;2023-04-25T10:43:35;22.53;;;6.20;;
3843;SDS011;1937;51.444;6.484;2023-04-25T10:46:12;29.80;;;6.33;;
3843;SDS011;1937;51.444;6.484;2023-04-25T10:48:44;24.77;;;7.07;;
3843;SDS011;1937;51.444;6.484;2023-04-25T10:51:18;25.73;;;7.53;;
3843;SDS011;1937;51.444;6.484;2023-04-25T10:53:46;25.83;;;7.60;;
3843;SDS011;1937;51.444;6.484;2023-04-25T10:56:18;29.73;;;10.47;;
3843;SDS011;1937;51.444;6.484;2023-04-25T10:58:46;31.47;;;9.73;;
3843;SDS011;1937;51.444;6.484;2023-04-25T11:01:13;26.10;;;7.70;;
3843;SDS011;1937;51.444;6.484;2023-04-25T11:03:40;23.00;;;5.50;;
3843;SDS011;1937;51.444;6.484;2023-04-25T11:06:14;25.90;;;6.10;;
3843;SDS011;1937;51.444;6.484;2023-04-25T11:08:48;23.17;;;5.30;;
3843;SDS011;1937;51.444;6.484;2023-04-25T11:11:16;20.27;;;4.50;;
3843;SDS011;1937;51.444;6.484;2023-04-25T11:13:47;25.33;;;4.83;;
3843;SDS011;1937;51.444;6.484;2023-04-25T11:16:14;20.80;;;4.33;;
3843;SDS011;1937;51.444;6.484;2023-04-25T11:18:41;24.40;;;5.90;;
3843;SDS011;1937;51.444;6.484;2023-04-25T11:21:08;25.07;;;6.17;;
3843;SDS011;1937;51.444;6.484;2023-04-25T11:23:35;21.40;;;4.87;;
3843;SDS011;1937;51.444;6.484;2023-04-25T11:26:02;16.13;;;5.90;;
3843;SDS011;1937;51.444;6.484;2023-04-25T11:28:30;12.43;;;2.57;;
3843;SDS011;1937;51.444;6.484;2023-04-25T11:30:58;18.53;;;3.17;;
3843;SDS011;1937;51.444;6.484;2023-04-25T11:33:25;13.03;;;3.30;;
3843;SDS011;1937;51.444;6.484;2023-04-25T11:35:53;13.43;;;3.53;;
3843;SDS011;1937;51.444;6.484;2023-04-25T11:38:21;14.03;;;3.17;;
3843;SDS011;1937;51.444;6.484;2023-04-25T11:40:49;17.20;;;4.10;;
3843;SDS011;1937;51.444;6.484;2023-04-25T11:43:17;17.00;;;5.40;;
3843;SDS011;1937;51.444;6.484;2023-04-25T11:45:48;15.50;;;3.83;;
3843;SDS011;1937;51.444;6.484;2023-04-25T11:48:16;17.23;;;4.23;;
3843;SDS011;1937;51.444;6.484;2023-04-25T11:50:43;17.43;;;4.47;;
3843;SDS011;1937;51.444;6.484;2023-04-25T11:53:09;21.00;;;4.70;;
3843;SDS011;1937;51.444;6.484;2023-04-25T11:55:36;14.93;;;3.67;;
3843;SDS011;1937;51.444;6.484;2023-04-25T11:58:05;21.93;;;3.80;;
3843;SDS011;1937;51.444;6.484;2023-04-25T12:00:33;14.90;;;4.30;;
3843;SDS011;1937;51.444;6.484;2023-04-25T12:03:02;19.50;;;3.93;;
3843;SDS011;1937;51.444;6.484;2023-04-25T12:05:30;24.10;;;5.10;;
3843;SDS011;1937;51.444;6.484;2023-04-25T12:08:09;21.60;;;5.17;;
3843;SDS011;1937;51.444;6.484;2023-04-25T12:10:38;24.13;;;6.50;;
3843;SDS011;1937;51.444;6.484;2023-04-25T12:13:19;20.53;;;5.03;;
3843;SDS011;1937;51.444;6.484;2023-04-25T12:15:46;22.73;;;6.47;;
3843;SDS011;1937;51.444;6.484;2023-04-25T12:18:18;23.27;;;6.40;;
3843;SDS011;1937;51.444;6.484;2023-04-25T12:20:45;19.20;;;4.83;;
3843;SDS011;1937;51.444;6.484;2023-04-25T12:23:12;24.27;;;6.40;;
3843;SDS011;1937;51.444;6.484;2023-04-25T12:25:39;34.30;;;5.10;;
3843;SDS011;1937;51.444;6.484;2023-04-25T12:28:11;22.50;;;5.40;;
3843;SDS011;1937;51.444;6.484;2023-04-25T12:33:28;20.80;;;5.63;;
3843;SDS011;1937;51.444;6.484;2023-04-25T12:35:56;24.53;;;6.17;;
3843;SDS011;1937;51.444;6.484;2023-04-25T12:38:24;20.53;;;5.53;;
3843;SDS011;1937;51.444;6.484;2023-04-25T12:40:51;31.60;;;9.13;;
3843;SDS011;1937;51.444;6.484;2023-04-25T12:43:18;31.93;;;8.50;;
3843;SDS011;1937;51.444;6.484;2023-04-25T12:45:44;34.70;;;10.37;;
3843;SDS011;1937;51.444;6.484;2023-04-25T12:48:13;34.77;;;10.47;;
3843;SDS011;1937;51.444;6.484;2023-04-25T12:50:41;48.50;;;13.40;;
3843;SDS011;1937;51.444;6.484;2023-04-25T12:53:08;47.00;;;13.83;;
3843;SDS011;1937;51.444;6.484;2023-04-25T12:55:35;36.87;;;12.97;;
3843;SDS011;1937;51.444;6.484;2023-04-25T12:58:01;44.20;;;14.57;;
3843;SDS011;1937;51.444;6.484;2023-04-25T13:00:28;38.73;;;12.50;;
3843;SDS011;1937;51.444;6.484;2023-04-25T13:02:55;35.50;;;11.13;;
3843;SDS011;1937;51.444;6.484;2023-04-25T13:05:22;30.40;;;8.10;;
3843;SDS011;1937;51.444;6.484;2023-04-25T13:07:50;28.53;;;7.83;;
3843;SDS011;1937;51.444;6.484;2023-04-25T13:10:17;18.70;;;4.77;;
3843;SDS011;1937;51.444;6.484;2023-04-25T13:12:44;20.40;;;4.90;;
3843;SDS011;1937;51.444;6.484;2023-04-25T13:15:11;23.33;;;4.60;;
3843;SDS011;1937;51.444;6.484;2023-04-25T13:17:37;20.33;;;3.90;;
3843;SDS011;1937;51.444;6.484;2023-04-25T13:20:05;18.97;;;3.53;;
3843;SDS011;1937;51.444;6.484;2023-04-25T13:22:33;20.23;;;4.73;;
3843;SDS011;1937;51.444;6.484;2023-04-25T13:25:03;20.40;;;5.37;;
3843;SDS011;1937;51.444;6.484;2023-04-25T13:27:30;23.00;;;5.23;;
3843;SDS011;1937;51.444;6.484;2023-04-25T13:29:58;26.27;;;7.60;;
3843;SDS011;1937;51.444;6.484;2023-04-25T13:32:26;28.50;;;8.43;;
3843;SDS011;1937;51.444;6.484;2023-04-25T13:34:53;24.13;;;5.47;;
3843;SDS011;1937;51.444;6.484;2023-04-25T13:37:19;23.07;;;7.40;;
3843;SDS011;1937;51.444;6.484;2023-04-25T13:39:49;28.43;;;7.20;;
3843;SDS011;1937;51.444;6.484;2023-04-25T13:42:17;26.30;;;7.43;;
3843;SDS011;1937;51.444;6.484;2023-04-25T13:44:44;21.90;;;4.93;;
3843;SDS011;1937;51.444;6.484;2023-04-25T13:47:10;27.17;;;6.27;;
3843;SDS011;1937;51.444;6.484;2023-04-25T13:49:37;38.50;;;10.00;;
3843;SDS011;1937;51.444;6.484;2023-04-25T13:52:04;41.03;;;11.73;;
3843;SDS011;1937;51.444;6.484;2023-04-25T13:54:30;37.70;;;13.23;;
3843;SDS011;1937;51.444;6.484;2023-04-25T13:56:57;40.77;;;12.10;;
3843;SDS011;1937;51.444;6.484;2023-04-25T13:59:25;39.00;;;13.90;;
3843;SDS011;1937;51.444;6.484;2023-04-25T14:01:52;31.93;;;10.50;;
3843;SDS011;1937;51.444;6.484;2023-04-25T14:04:18;26.70;;;7.53;;
3843;SDS011;1937;51.444;6.484;2023-04-25T14:06:45;30.10;;;7.40;;
3843;SDS011;1937;51.444;6.484;2023-04-25T14:09:12;23.97;;;6.97;;
3843;SDS011;1937;51.444;6.484;2023-04-25T14:11:38;27.60;;;7.60;;
3843;SDS011;1937;51.444;6.484;2023-04-25T14:14:05;28.53;;;7.40;;
3843;SDS011;1937;51.444;6.484;2023-04-25T14:16:33;31.43;;;7.63;;
3843;SDS011;1937;51.444;6.484;2023-04-25T14:18:59;28.83;;;8.07;;
3843;SDS011;1937;51.444;6.484;2023-04-25T14:21:26;27.80;;;7.50;;
3843;SDS011;1937;51.444;6.484;2023-04-25T14:23:53;24.80;;;6.30;;
3843;SDS011;1937;51.444;6.484;2023-04-25T14:26:19;31.67;;;7.47;;
3843;SDS011;1937;51.444;6.484;2023-04-25T14:28:46;25.13;;;6.20;;
3843;SDS011;1937;51.444;6.484;2023-04-25T14:31:13;22.23;;;5.40;;
3843;SDS011;1937;51.444;6.484;2023-04-25T14:33:41;21.77;;;4.50;;
3843;SDS011;1937;51.444;6.484;2023-04-25T14:36:08;18.70;;;4.17;;
3843;SDS011;1937;51.444;6.484;2023-04-25T14:38:35;21.27;;;4.33;;
3843;SDS011;1937;51.444;6.484;2023-04-25T14:41:01;16.00;;;3.60;;
3843;SDS011;1937;51.444;6.484;2023-04-25T14:43:28;17.83;;;3.33;;
3843;SDS011;1937;51.444;6.484;2023-04-25T14:45:55;16.43;;;3.73;;
3843;SDS011;1937;51.444;6.484;2023-04-25T14:48:22;17.93;;;3.80;;
3843;SDS011;1937;51.444;6.484;2023-04-25T14:50:50;15.57;;;3.20;;
3843;SDS011;1937;51.444;6.484;2023-04-25T14:53:16;18.37;;;5.07;;
3843;SDS011;1937;51.444;6.484;2023-04-25T14:55:43;19.77;;;4.70;;
3843;SDS011;1937;51.444;6.484;2023-04-25T14:58:11;18.80;;;4.20;;
3843;SDS011;1937;51.444;6.484;2023-04-25T15:00:38;23.00;;;5.33;;
3843;SDS011;1937;51.444;6.484;2023-04-25T15:03:05;25.93;;;6.67;;
3843;SDS011;1937;51.444;6.484;2023-04-25T15:05:32;24.83;;;6.90;;